LUKK Airport Information

Runway Information
Runway 08 Length 11778 ft width 148 ft
Elevation 399 ft Threshold ft Heading 88
Runway 26 Length 11778 ft Width 148 ft
Elevation 279 ft Threshold ft Heading 268
Runway 09 Length 7818 ft width 148 ft
Elevation 322 ft Threshold ft Heading 0
Runway 27 Length 7818 ft Width 148 ft
Elevation 322 ft Threshold ft Heading 0
Airport Frequencies
Type APP Name APP Frequency 125.9 MHZ
Type ATIS Name ATIS Frequency 133.7 MHZ
Type GND Name GND Frequency 121.8 MHZ
Type TWR Name TWR Frequency 118.1 MHZ
Airport Navaids
Type VOR-DME Name Chisinau Frequency 113700 KHZ
Airport Weather Information & NOTAM
ADDS - METARS form results

(1532 UTC 26 September 2022)
Data provider http://aviationweather.gov/metar/data/
 
METAR text: LUKK 261530Z 22003KT CAVOK 22/09 Q1007 NOSIG
Conditions at: LUKK (CHISINAU INTL , MD) observed 1530 UTC 26 September 2022
Temperature: 22.0°C (72°F)
Dewpoint: 9.0°C (48°F) [RH = 43%]
Pressure (altimeter): 29.73 inches Hg (1007.0 mb)
Winds: from the SW (220 degrees) at 3 MPH (3 knots; 1.5 m/s)
Visibility: 6 or more miles (10+ km)
Ceiling: ceiling and visibility are OK
Clouds: unknown
Weather: no significant weather observed at this time

METAR text: LUKK 261500Z 21002KT CAVOK 22/10 Q1007 NOSIG
Conditions at: LUKK (CHISINAU INTL , MD) observed 1500 UTC 26 September 2022
Temperature: 22.0°C (72°F)
Dewpoint: 10.0°C (50°F) [RH = 46%]
Pressure (altimeter): 29.73 inches Hg (1007.0 mb)
Winds: from the SSW (210 degrees) at 2 MPH (2 knots; 1.0 m/s)
Visibility: 6 or more miles (10+ km)
Ceiling: ceiling and visibility are OK
Clouds: unknown
Weather: no significant weather observed at this time

Forecast for: LUKK (CHISINAU INTL , MD)
Text: TAF LUKK 261120Z 2612/2712 19008KT CAVOK
Forecast period: 1200 UTC 26 September 2022 to 0700 UTC 27 September 2022
Forecast type: FROM: standard forecast or significant change
Winds: from the S (190 degrees) at 9 MPH (8 knots; 4.1 m/s)
Visibility: 6 or more miles (10+ km)
Ceiling: unknown
Clouds: missing
Weather: NSW  (no significant weather)
Text: TEMPO 2700/2707 4000 SHRA BKN010 SCT040CB
Forecast period: 0000 to 0700 UTC 27 September 2022
Forecast type: TEMPORARY: The following changes expected for less than half the time period
Visibility: 2.49 miles (4.01 km)
Ceiling: 1000 feet AGL
Clouds: broken clouds at 1000 feet AGL
scattered clouds at 4000 feet AGL
Weather: SHRA  (rain showers)
Text: BECMG 2707/2709 29008KT
Forecast period: 0700 to 1200 UTC 27 September 2022
Forecast type: BECOMING: Conditions expected to become as follows by 0900 UTC 27 September 2022
Winds: from the WNW (290 degrees) at 9 MPH (8 knots; 4.1 m/s)
Visibility: 6 or more miles (10+ km)
Ceiling: unknown
Clouds: missing
Weather: NSW  (no significant weather)